Time;durP1;ratioP1;P1;durP2;ratioP2;P2;SDS_P1;SDS_P2;PMS_P1;PMS_P2;Temp;Humidity;BMP_temperature;BMP_pressure;BME280_temperature;BME280_humidity;BME280_pressure;Samples;Min_cycle;Max_cycle;Signal;HPM_P1;HPM_P2
2023/10/13 00:01:54;;;;;;;29.25;12.68;;;12.00;99.90;;;;;;5072801;28;20028;-78
2023/10/13 00:04:24;;;;;;;18.70;8.32;;;12.00;99.90;;;;;;5053869;28;20025;-78
2023/10/13 00:06:56;;;;;;;14.65;7.38;;;12.00;99.90;;;;;;5072413;28;20393;-78
2023/10/13 00:09:32;;;;;;;13.43;6.75;;;12.10;99.90;;;;;;5054364;28;20043;-79
2023/10/13 00:11:59;;;;;;;11.75;5.90;;;12.00;99.90;;;;;;5072587;28;20108;-78
2023/10/13 00:14:33;;;;;;;8.90;5.05;;;12.00;99.90;;;;;;5071915;28;20047;-79
2023/10/13 00:17:03;;;;;;;8.63;5.10;;;12.10;99.90;;;;;;5072289;28;20119;-78
2023/10/13 00:19:46;;;;;;;7.10;4.70;;;12.10;99.90;;;;;;5071334;28;20028;-79
2023/10/13 00:22:16;;;;;;;6.93;4.40;;;12.10;99.90;;;;;;5072191;28;20039;-78
2023/10/13 00:24:45;;;;;;;8.25;4.65;;;12.10;99.90;;;;;;5053620;28;20036;-79
2023/10/13 00:32:57;;;;;;;8.40;4.70;;;12.20;99.90;;;;;;5071784;28;20068;-78
2023/10/13 00:35:35;;;;;;;14.98;5.32;;;12.20;99.90;;;;;;5071106;28;20168;-78
2023/10/13 00:38:12;;;;;;;8.50;4.65;;;12.20;99.90;;;;;;5071792;28;20081;-78
2023/10/13 00:45:56;;;;;;;6.38;4.07;;;12.20;99.90;;;;;;5071555;28;20032;-79
2023/10/13 00:48:33;;;;;;;11.80;4.97;;;12.20;99.90;;;;;;5071149;28;20518;-78
2023/10/13 00:51:06;;;;;;;11.38;4.72;;;12.20;99.90;;;;;;5071530;28;20028;-78
2023/10/13 00:53:44;;;;;;;7.35;4.20;;;12.20;99.90;;;;;;5034185;28;20103;-78
2023/10/13 00:56:18;;;;;;;10.70;4.57;;;12.20;99.90;;;;;;5051307;28;20444;-78
2023/10/13 00:58:46;;;;;;;11.27;4.95;;;12.20;99.90;;;;;;5051418;28;20032;-79
2023/10/13 01:01:18;;;;;;;10.77;4.70;;;12.20;99.90;;;;;;5051387;28;20044;-78
2023/10/13 01:03:55;;;;;;;12.18;4.55;;;12.20;99.90;;;;;;5050976;28;20071;-77
2023/10/13 01:06:31;;;;;;;10.38;4.78;;;12.20;99.90;;;;;;5050946;28;20079;-79
2023/10/13 01:09:17;;;;;;;15.98;5.18;;;12.20;99.90;;;;;;5051463;28;20021;-78
2023/10/13 01:11:52;;;;;;;9.57;4.60;;;12.20;99.90;;;;;;5050942;28;20036;-78
2023/10/13 01:14:27;;;;;;;14.60;5.97;;;12.20;99.90;;;;;;5051347;28;20460;-78
2023/10/13 01:16:52;;;;;;;10.93;6.30;;;12.20;99.90;;;;;;5051183;28;20044;-78
2023/10/13 01:19:24;;;;;;;14.50;6.25;;;12.10;99.90;;;;;;5050983;28;20464;-79
2023/10/13 01:21:54;;;;;;;10.85;5.43;;;12.10;99.90;;;;;;5033307;28;20448;-78
2023/10/13 01:24:23;;;;;;;13.95;6.45;;;12.00;99.90;;;;;;5051044;28;20487;-78
2023/10/13 01:26:52;;;;;;;10.75;6.40;;;12.10;99.90;;;;;;5051073;28;20017;-76
2023/10/13 01:29:18;;;;;;;8.02;5.30;;;12.00;99.90;;;;;;5050915;28;20033;-77
2023/10/13 01:31:45;;;;;;;13.85;6.75;;;12.00;99.90;;;;;;5050127;28;20127;-78
2023/10/13 01:34:23;;;;;;;7.97;5.53;;;12.00;99.90;;;;;;5051359;28;20151;-77
2023/10/13 01:36:53;;;;;;;9.98;5.53;;;12.00;99.90;;;;;;5050648;28;20487;-78
2023/10/13 01:39:28;;;;;;;9.50;4.97;;;12.00;99.90;;;;;;5050984;28;20029;-78
2023/10/13 01:41:57;;;;;;;11.10;6.15;;;12.00;99.90;;;;;;5050792;28;20032;-78
2023/10/13 01:44:26;;;;;;;12.80;6.03;;;12.00;99.90;;;;;;5050189;28;20021;-79
2023/10/13 01:46:52;;;;;;;10.50;5.68;;;11.90;99.90;;;;;;5050711;28;20025;-78
2023/10/13 01:49:17;;;;;;;9.55;5.82;;;11.90;99.90;;;;;;5050724;28;20188;-77
2023/10/13 01:51:47;;;;;;;13.80;5.93;;;11.90;99.90;;;;;;5052803;28;20094;-77
2023/10/13 01:54:13;;;;;;;12.77;6.05;;;11.90;99.90;;;;;;5070692;28;20039;-77
2023/10/13 01:56:43;;;;;;;18.60;6.53;;;11.90;99.90;;;;;;5052015;28;20063;-77
2023/10/13 01:59:12;;;;;;;16.98;7.18;;;11.90;99.90;;;;;;5070538;28;20309;-77
2023/10/13 02:01:39;;;;;;;15.77;7.25;;;11.90;99.90;;;;;;5070544;28;20086;-77
2023/10/13 02:04:06;;;;;;;13.32;6.90;;;11.80;99.90;;;;;;5052715;28;20029;-77
2023/10/13 02:06:36;;;;;;;9.32;6.13;;;11.80;99.90;;;;;;5070062;28;20089;-77
2023/10/13 02:09:25;;;;;;;14.50;6.43;;;11.80;99.90;;;;;;5070442;28;20043;-77
2023/10/13 02:11:56;;;;;;;17.00;7.50;;;11.80;99.90;;;;;;5070537;28;20047;-77
2023/10/13 02:14:23;;;;;;;11.15;6.82;;;11.80;99.90;;;;;;5070017;28;20035;-78
2023/10/13 02:16:55;;;;;;;14.93;6.43;;;11.80;99.90;;;;;;5070082;28;20024;-77
2023/10/13 02:19:21;;;;;;;14.95;7.10;;;11.80;99.90;;;;;;5070012;28;20411;-78
2023/10/13 02:21:58;;;;;;;14.88;6.53;;;11.80;99.90;;;;;;5071196;28;20102;-78
2023/10/13 02:24:29;;;;;;;14.10;6.93;;;11.80;99.90;;;;;;5073603;28;20036;-79
2023/10/13 02:27:02;;;;;;;18.42;7.78;;;11.80;99.90;;;;;;5074205;28;20028;-77
2023/10/13 02:29:28;;;;;;;13.60;6.78;;;11.70;99.90;;;;;;5073370;28;20111;-78
2023/10/13 02:31:54;;;;;;;16.50;7.35;;;11.70;99.90;;;;;;5074361;28;20490;-77
2023/10/13 02:34:23;;;;;;;13.20;6.65;;;11.70;99.90;;;;;;5074202;28;20021;-77
2023/10/13 02:36:48;;;;;;;17.67;7.68;;;11.70;99.90;;;;;;5073804;28;20021;-78
2023/10/13 02:39:26;;;;;;;13.70;7.32;;;11.70;99.90;;;;;;5073708;28;20025;-78
2023/10/13 02:41:55;;;;;;;12.50;6.20;;;11.70;99.90;;;;;;5074059;28;20085;-78
2023/10/13 02:44:30;;;;;;;10.98;7.57;;;11.60;99.90;;;;;;5074014;28;20081;-78
2023/10/13 02:46:56;;;;;;;14.73;7.05;;;11.70;99.90;;;;;;5074072;28;20072;-78
2023/10/13 02:49:34;;;;;;;9.48;6.65;;;11.70;99.90;;;;;;5073769;28;20066;-78
2023/10/13 02:52:05;;;;;;;12.60;7.30;;;11.70;99.90;;;;;;5073715;28;20045;-78
2023/10/13 02:54:37;;;;;;;18.70;7.55;;;11.60;99.90;;;;;;5073184;28;20211;-79
2023/10/13 02:57:06;;;;;;;10.57;6.38;;;11.70;99.90;;;;;;5073884;28;20167;-78
2023/10/13 02:59:46;;;;;;;12.02;7.13;;;11.60;99.90;;;;;;5073448;28;20043;-78
2023/10/13 03:02:29;;;;;;;17.40;8.00;;;11.70;99.90;;;;;;5074049;28;20111;-77
2023/10/13 03:04:59;;;;;;;11.88;7.32;;;11.70;99.90;;;;;;5073394;28;20028;-77
2023/10/13 03:07:28;;;;;;;17.35;7.90;;;11.70;99.90;;;;;;5055719;28;20458;-78
2023/10/13 03:09:59;;;;;;;17.10;8.10;;;11.60;99.90;;;;;;5073507;28;20401;-77
2023/10/13 03:12:26;;;;;;;15.18;8.13;;;11.60;99.90;;;;;;5073643;28;20379;-77
2023/10/13 03:14:57;;;;;;;18.05;8.70;;;11.60;99.90;;;;;;5073251;28;20099;-77
2023/10/13 03:17:33;;;;;;;16.60;8.27;;;11.60;99.90;;;;;;5073490;28;20029;-77
2023/10/13 03:19:59;;;;;;;13.55;7.38;;;11.60;99.90;;;;;;5073459;28;20047;-76
2023/10/13 03:22:31;;;;;;;11.45;7.38;;;11.60;99.90;;;;;;5073474;28;20032;-77
2023/10/13 03:25:08;;;;;;;12.00;6.95;;;11.60;99.90;;;;;;5073147;28;20028;-76
2023/10/13 03:27:48;;;;;;;17.25;7.78;;;11.60;99.90;;;;;;5055055;28;20024;-76
2023/10/13 03:30:15;;;;;;;16.65;8.07;;;11.60;99.90;;;;;;5073410;28;20112;-78
2023/10/13 03:32:47;;;;;;;10.38;7.45;;;11.70;99.90;;;;;;5072267;28;20028;-78
2023/10/13 03:35:59;;;;;;;19.92;8.90;;;11.70;99.90;;;;;;5072922;28;20028;-77
2023/10/13 03:38:01;;;;;;;11.52;7.20;;;11.70;99.90;;;;;;5047523;28;20090;-78
2023/10/13 03:43:04;;;;;;;14.75;7.25;;;11.70;99.90;;;;;;5072433;28;20028;-78
2023/10/13 03:45:41;;;;;;;16.85;9.85;;;11.70;99.90;;;;;;5072526;28;20021;-77
2023/10/13 03:48:27;;;;;;;14.15;8.07;;;11.70;99.90;;;;;;5072793;28;20394;-77
2023/10/13 03:51:06;;;;;;;11.73;7.70;;;11.70;99.90;;;;;;5072221;28;20056;-76
2023/10/13 03:53:33;;;;;;;15.93;9.10;;;11.70;99.90;;;;;;5072036;28;20052;-78
2023/10/13 03:56:26;;;;;;;16.13;8.77;;;11.70;99.90;;;;;;5072555;28;20045;-77
2023/10/13 03:58:53;;;;;;;16.10;8.98;;;11.70;99.90;;;;;;5072454;28;20033;-76
2023/10/13 04:01:31;;;;;;;13.63;7.93;;;11.70;99.90;;;;;;5072458;28;20033;-77
2023/10/13 04:04:09;;;;;;;11.27;8.27;;;11.70;99.90;;;;;;5072384;28;20020;-77
2023/10/13 04:17:22;;;;;;;14.30;11.20;;;11.60;99.90;;;;;;5072015;28;20150;-77
2023/10/13 04:30:52;;;;;;;17.55;14.68;;;11.40;99.90;;;;;;5073765;28;20028;-78
2023/10/13 04:36:13;;;;;;;18.45;15.98;;;11.40;99.90;;;;;;5072794;28;20032;-77
2023/10/13 04:41:39;;;;;;;20.42;16.73;;;11.40;99.90;;;;;;5072353;28;20433;-78
2023/10/13 04:44:47;;;;;;;21.77;17.00;;;11.30;99.90;;;;;;5071373;28;20094;-77
2023/10/13 04:51:59;;;;;;;16.92;13.52;;;11.20;99.90;;;;;;5070816;28;20635;-77
2023/10/13 04:54:45;;;;;;;12.30;10.07;;;11.20;99.90;;;;;;5053669;28;20402;-79
2023/10/13 06:29:54;;;;;;;8.68;3.88;;;10.10;99.90;;;;;;5069471;28;20445;-78
2023/10/13 06:32:25;;;;;;;13.15;3.80;;;10.00;99.90;;;;;;5069779;28;20032;-77
2023/10/13 06:34:57;;;;;;;6.30;3.05;;;9.90;99.90;;;;;;5069580;28;20078;-77
2023/10/13 06:39:56;;;;;;;6.20;2.47;;;10.00;99.90;;;;;;5069285;28;20778;-77
2023/10/13 06:42:28;;;;;;;5.13;2.92;;;10.00;99.90;;;;;;5051477;28;20063;-77
2023/10/13 06:44:55;;;;;;;9.55;3.30;;;10.00;99.90;;;;;;5069477;28;20031;-78
2023/10/13 06:47:21;;;;;;;5.50;2.83;;;10.10;99.90;;;;;;5070370;28;20032;-78
2023/10/13 06:49:51;;;;;;;7.28;2.92;;;10.10;99.90;;;;;;5069911;28;20032;-79
2023/10/13 06:52:22;;;;;;;6.85;3.13;;;10.00;99.90;;;;;;5069692;28;20040;-78
2023/10/13 06:54:53;;;;;;;10.88;4.07;;;10.10;99.90;;;;;;5069539;28;20028;-78
2023/10/13 06:57:21;;;;;;;6.68;3.35;;;10.10;99.90;;;;;;5070115;28;20440;-78
2023/10/13 06:59:48;;;;;;;7.25;3.45;;;10.20;99.90;;;;;;5069349;28;20032;-78
2023/10/13 07:02:22;;;;;;;7.10;3.63;;;10.10;99.90;;;;;;5069897;28;20024;-77
2023/10/13 07:04:50;;;;;;;10.77;3.15;;;10.20;99.90;;;;;;5069439;28;20025;-77
2023/10/13 07:07:16;;;;;;;7.82;2.80;;;10.20;99.90;;;;;;5069883;28;20028;-78
2023/10/13 07:09:58;;;;;;;10.77;3.03;;;10.20;99.90;;;;;;5073490;28;20035;-78
2023/10/13 07:12:26;;;;;;;8.32;3.40;;;10.30;99.90;;;;;;5073654;28;20460;-77
2023/10/13 07:14:53;;;;;;;7.97;2.92;;;10.30;99.90;;;;;;5073082;28;20024;-78
2023/10/13 07:17:25;;;;;;;7.57;2.90;;;10.30;99.90;;;;;;5073413;28;20035;-78
2023/10/13 07:19:59;;;;;;;8.88;3.10;;;10.30;99.90;;;;;;5072502;28;20443;-77
2023/10/13 07:22:27;;;;;;;6.75;2.78;;;10.30;99.90;;;;;;5073514;28;20478;-78
2023/10/13 07:24:53;;;;;;;10.63;3.20;;;10.30;99.90;;;;;;5072818;28;20107;-77
2023/10/13 07:27:23;;;;;;;7.60;3.03;;;10.20;99.90;;;;;;5073154;28;20413;-77
2023/10/13 07:30:14;;;;;;;5.47;2.00;;;10.30;99.90;;;;;;5073347;28;20434;-78
2023/10/13 07:32:46;;;;;;;7.25;2.90;;;10.20;99.90;;;;;;5072965;28;20032;-77
2023/10/13 07:35:20;;;;;;;7.30;3.20;;;10.20;99.90;;;;;;5073760;28;20032;-78
2023/10/13 07:37:51;;;;;;;9.05;2.53;;;10.30;99.90;;;;;;5072490;28;20078;-78
2023/10/13 07:43:08;;;;;;;4.65;2.40;;;10.40;99.90;;;;;;5072313;28;20074;-78
2023/10/13 07:45:40;;;;;;;5.03;2.13;;;10.50;99.90;;;;;;5073130;28;20038;-78
2023/10/13 07:48:29;;;;;;;7.25;2.03;;;10.50;99.90;;;;;;5054344;28;20029;-78
2023/10/13 07:51:06;;;;;;;4.28;1.83;;;10.60;99.90;;;;;;5071696;28;20406;-78
2023/10/13 07:53:34;;;;;;;7.65;2.40;;;10.60;99.90;;;;;;5054627;28;20064;-78
2023/10/13 07:56:07;;;;;;;6.55;2.30;;;10.60;99.90;;;;;;5054256;28;20025;-76
2023/10/13 07:58:33;;;;;;;;;;;10.70;99.90;;;;;;5055395;28;20524;-77
2023/10/13 08:01:07;;;;;;;6.07;2.53;;;10.80;99.90;;;;;;5072082;28;19999;-77
2023/10/13 08:03:43;;;;;;;9.27;2.58;;;10.80;99.90;;;;;;5072383;28;20024;-79
2023/10/13 08:08:38;;;;;;;7.68;1.90;;;10.80;99.90;;;;;;5072054;28;20036;-78
2023/10/13 08:11:24;;;;;;;6.05;1.73;;;10.70;99.90;;;;;;5071944;28;20055;-78
2023/10/13 08:19:20;;;;;;;5.63;1.83;;;10.70;99.90;;;;;;5071370;28;20077;-78
2023/10/13 08:21:58;;;;;;;5.25;1.95;;;10.60;99.90;;;;;;5071534;28;20243;-79
2023/10/13 08:25:15;;;;;;;5.30;2.40;;;10.70;99.90;;;;;;5064778;28;20392;-77
2023/10/13 08:32:35;;;;;;;10.82;3.05;;;11.00;99.90;;;;;;5052128;28;20116;-78
2023/10/13 08:46:24;;;;;;;5.57;2.17;;;11.20;99.90;;;;;;5069550;28;20039;-78
2023/10/13 08:48:15;;;;;;;4.95;2.40;;;11.20;99.90;;;;;;5053845;28;20391;-77
2023/10/13 08:53:31;;;;;;;4.45;2.05;;;11.10;99.90;;;;;;5071327;28;20482;-79
2023/10/13 08:56:18;;;;;;;7.00;2.33;;;11.10;99.90;;;;;;5052871;28;20028;-79
2023/10/13 09:01:48;;;;;;;3.25;1.90;;;11.10;99.90;;;;;;5071551;28;20078;-79
2023/10/13 09:09:36;;;;;;;4.97;2.05;;;11.00;99.90;;;;;;5071619;28;20031;-77
2023/10/13 09:12:11;;;;;;;6.43;2.10;;;11.10;99.90;;;;;;5071139;28;20021;-79
2023/10/13 09:14:43;;;;;;;4.95;2.10;;;11.00;99.90;;;;;;5053336;28;20024;-79
2023/10/13 09:17:12;;;;;;;6.13;2.22;;;11.20;99.90;;;;;;5070983;28;20029;-79
2023/10/13 09:19:49;;;;;;;6.00;2.08;;;11.10;99.90;;;;;;5071361;28;20033;-78
2023/10/13 09:22:37;;;;;;;7.47;2.17;;;11.10;99.90;;;;;;5053341;28;20036;-79
2023/10/13 09:25:13;;;;;;;6.35;2.40;;;11.20;99.90;;;;;;5070980;28;20039;-79
2023/10/13 09:27:53;;;;;;;5.75;1.90;;;11.20;99.90;;;;;;5071309;28;20024;-79
2023/10/13 09:30:21;;;;;;;10.18;2.53;;;11.20;99.90;;;;;;5070999;28;20025;-79
2023/10/13 09:32:50;;;;;;;8.40;2.40;;;11.20;99.90;;;;;;5053123;28;20040;-79
2023/10/13 09:35:22;;;;;;;7.18;2.53;;;11.20;99.90;;;;;;5070849;28;20122;-79
2023/10/13 09:37:50;;;;;;;5.03;2.30;;;11.20;99.90;;;;;;5071145;28;20082;-79
2023/10/13 09:43:07;;;;;;;9.90;2.50;;;11.40;99.90;;;;;;5070657;28;20086;-79
2023/10/13 09:45:43;;;;;;;9.65;2.35;;;11.50;99.90;;;;;;5071064;28;20032;-79
2023/10/13 09:48:21;;;;;;;7.15;2.30;;;11.50;99.90;;;;;;5053520;28;20430;-79
2023/10/13 09:50:48;;;;;;;9.45;2.30;;;11.40;99.90;;;;;;5055987;28;20082;-79
2023/10/13 09:53:18;;;;;;;8.27;2.53;;;11.40;99.90;;;;;;5071691;28;20080;-79
2023/10/13 09:56:11;;;;;;;7.10;2.50;;;11.40;99.90;;;;;;5072903;28;20467;-79
2023/10/13 09:58:47;;;;;;;9.30;2.47;;;11.40;99.90;;;;;;5072946;28;20040;-79
2023/10/13 10:01:21;;;;;;;8.13;2.30;;;11.40;99.90;;;;;;5071945;28;20086;-79
2023/10/13 10:04:09;;;;;;;9.93;2.63;;;11.40;99.90;;;;;;5072028;28;20517;-79
2023/10/13 10:06:39;;;;;;;11.82;3.08;;;11.40;99.90;;;;;;5070957;28;20045;-79
2023/10/13 10:09:12;;;;;;;11.15;2.30;;;11.50;99.90;;;;;;5052090;28;20112;-79
2023/10/13 10:12:05;;;;;;;13.55;2.88;;;11.50;99.90;;;;;;5070531;28;20044;-79
2023/10/13 10:14:56;;;;;;;9.80;2.75;;;11.50;99.90;;;;;;5070699;28;20025;-79
2023/10/13 10:17:22;;;;;;;14.35;2.90;;;11.70;99.90;;;;;;5052313;28;20495;-79
2023/10/13 10:19:56;;;;;;;11.63;2.90;;;11.90;99.90;;;;;;5070452;28;20037;-78
2023/10/13 10:22:36;;;;;;;13.00;3.28;;;12.00;99.90;;;;;;5070255;28;20078;-78
2023/10/13 10:25:25;;;;;;;13.77;3.05;;;12.20;99.90;;;;;;5052070;28;20032;-79
2023/10/13 10:27:58;;;;;;;18.13;3.42;;;12.40;99.90;;;;;;5070474;28;20554;-78
2023/10/13 10:30:25;;;;;;;11.10;3.05;;;12.50;99.90;;;;;;5070754;28;20445;-79
2023/10/13 10:32:59;;;;;;;19.88;3.83;;;12.50;99.90;;;;;;5070389;28;20021;-79
2023/10/13 10:35:29;;;;;;;13.13;2.92;;;12.50;99.90;;;;;;5052049;28;20111;-79
2023/10/13 10:38:03;;;;;;;15.00;3.38;;;12.40;99.90;;;;;;5070207;28;20324;-81
2023/10/13 10:40:47;;;;;;;20.85;3.75;;;12.40;99.90;;;;;;5070130;28;20475;-79
2023/10/13 10:43:17;;;;;;;18.25;4.30;;;12.30;99.90;;;;;;5071347;28;20421;-78
2023/10/13 10:45:49;;;;;;;12.80;3.63;;;12.20;99.90;;;;;;5074164;28;20115;-79
2023/10/13 10:48:21;;;;;;;13.63;5.20;;;12.10;99.90;;;;;;5073685;28;20036;-79
2023/10/13 10:50:56;;;;;;;14.07;5.43;;;12.10;99.90;;;;;;5074007;28;20051;-79
2023/10/13 10:53:43;;;;;;;15.10;4.68;;;12.10;99.90;;;;;;5073918;28;20040;-79
2023/10/13 10:58:59;;;;;;;15.82;3.50;;;12.10;99.90;;;;;;5074210;28;20475;-80
2023/10/13 11:01:38;;;;;;;11.88;2.85;;;12.10;99.90;;;;;;5073615;28;20032;-79
2023/10/13 11:07:00;;;;;;;15.00;6.95;;;12.10;99.90;;;;;;5073623;28;20107;-79
2023/10/13 11:12:15;;;;;;;19.30;6.38;;;12.00;99.90;;;;;;5073296;28;20082;-81
2023/10/13 11:14:50;;;;;;;16.30;3.70;;;12.00;99.90;;;;;;5055681;28;20391;-78
2023/10/13 11:20:34;;;;;;;9.73;2.60;;;12.00;99.90;;;;;;4991724;28;20129;-79
2023/10/13 11:23:04;;;;;;;8.82;2.60;;;12.00;99.90;;;;;;5062081;28;20036;-79
2023/10/13 11:25:40;;;;;;;10.98;2.78;;;12.10;99.90;;;;;;5073414;28;20387;-79
2023/10/13 11:28:27;;;;;;;13.00;2.70;;;12.10;99.90;;;;;;5073338;28;20063;-79
2023/10/13 11:30:56;;;;;;;9.75;2.63;;;12.20;99.90;;;;;;5073231;28;20396;-79
2023/10/13 11:33:28;;;;;;;14.98;2.85;;;12.20;99.90;;;;;;5073197;28;20445;-79
2023/10/13 11:36:01;;;;;;;11.90;3.03;;;12.30;99.90;;;;;;5055899;28;20458;-78
2023/10/13 11:46:13;;;;;;;12.10;3.28;;;12.50;99.90;;;;;;5072701;28;20428;-77
2023/10/13 11:48:41;;;;;;;12.10;3.10;;;12.60;99.90;;;;;;5073533;28;20084;-78
2023/10/13 11:51:38;;;;;;;10.73;2.67;;;12.70;99.90;;;;;;5072819;28;20037;-78
2023/10/13 11:53:59;;;;;;;8.07;2.35;;;12.70;99.90;;;;;;5071657;28;20504;-81
2023/10/13 11:56:25;;;;;;;12.30;2.85;;;12.70;99.90;;;;;;5072429;28;20028;-78
2023/10/13 11:58:51;;;;;;;16.23;3.15;;;12.60;99.90;;;;;;5073698;28;20104;-78
2023/10/13 12:11:42;;;;;;;9.80;2.30;;;12.50;99.90;;;;;;5072987;28;20032;-79
2023/10/13 12:14:19;;;;;;;9.60;2.33;;;12.60;99.90;;;;;;5071933;28;20525;-79
2023/10/13 12:16:48;;;;;;;10.52;2.40;;;12.70;99.90;;;;;;5073168;28;20100;-79
2023/10/13 12:19:26;;;;;;;12.27;2.20;;;12.60;99.90;;;;;;5072272;28;20032;-80
2023/10/13 12:21:54;;;;;;;9.65;2.33;;;12.50;99.90;;;;;;5073088;28;20036;-79
2023/10/13 12:29:53;;;;;;;11.77;2.45;;;12.40;99.90;;;;;;5072149;28;20044;-79
2023/10/13 12:32:24;;;;;;;14.27;2.75;;;12.40;99.90;;;;;;5071951;28;20108;-79
2023/10/13 12:37:49;;;;;;;6.93;2.25;;;12.50;99.90;;;;;;5072054;28;20043;-78
2023/10/13 12:51:20;;;;;;;11.10;1.98;;;12.80;99.90;;;;;;5071483;28;20475;-81
2023/10/13 12:53:52;;;;;;;6.50;1.55;;;12.80;99.90;;;;;;5072357;28;20127;-80
2023/10/13 12:56:28;;;;;;;6.50;1.90;;;12.80;99.90;;;;;;5071757;28;20036;-81
2023/10/13 12:58:55;;;;;;;7.47;1.88;;;12.70;99.90;;;;;;5072277;28;20060;-80
2023/10/13 13:01:32;;;;;;;7.20;1.80;;;12.60;99.90;;;;;;5070629;28;20036;-80
2023/10/13 13:03:58;;;;;;;8.50;2.13;;;12.60;99.90;;;;;;5071591;28;20025;-79
2023/10/13 13:06:26;;;;;;;13.73;1.92;;;12.70;99.90;;;;;;5070368;28;20024;-81
2023/10/13 13:08:56;;;;;;;4.82;1.70;;;12.90;99.90;;;;;;5071627;28;20021;-81
2023/10/13 13:11:22;;;;;;;5.50;1.63;;;13.10;99.90;;;;;;5070806;28;20032;-82
2023/10/13 13:13:49;;;;;;;7.22;1.67;;;13.20;99.90;;;;;;5071283;28;20020;-80
2023/10/13 13:16:33;;;;;;;8.15;2.20;;;13.30;99.90;;;;;;5070792;28;20114;-81
2023/10/13 13:19:03;;;;;;;6.75;1.70;;;13.20;99.90;;;;;;5071372;28;20052;-80
2023/10/13 13:21:28;;;;;;;6.13;1.70;;;13.20;99.90;;;;;;5070749;28;20390;-82
2023/10/13 13:23:54;;;;;;;9.07;2.25;;;13.00;99.90;;;;;;5070840;28;20024;-82
2023/10/13 13:26:21;;;;;;;6.38;1.60;;;12.90;99.90;;;;;;5070321;28;20033;-81
2023/10/13 13:28:51;;;;;;;9.95;1.98;;;12.70;99.90;;;;;;5052858;28;20027;-82
2023/10/13 13:31:29;;;;;;;6.90;2.20;;;12.70;99.90;;;;;;5070810;28;20031;-81
2023/10/13 13:33:55;;;;;;;12.00;2.10;;;12.70;99.90;;;;;;5071290;28;20061;-82
2023/10/13 13:36:22;;;;;;;8.77;1.80;;;12.70;99.90;;;;;;5071181;28;20035;-82
2023/10/13 13:38:54;;;;;;;6.60;1.65;;;12.70;99.90;;;;;;5070857;28;20104;-82
2023/10/13 13:41:20;;;;;;;6.82;1.80;;;12.70;99.90;;;;;;5053310;28;20040;-82
2023/10/13 13:46:16;;;;;;;10.38;2.00;;;12.70;99.90;;;;;;5052273;28;20020;-82
2023/10/13 13:48:43;;;;;;;8.30;1.63;;;12.60;99.90;;;;;;5052483;28;20025;-81
2023/10/13 13:51:15;;;;;;;10.73;1.80;;;12.60;99.90;;;;;;5070070;28;20035;-85
2023/10/13 13:53:50;;;;;;;10.15;1.90;;;12.50;99.90;;;;;;5070504;28;20487;-81
2023/10/13 13:56:16;;;;;;;13.00;2.22;;;12.60;99.90;;;;;;5051846;28;20109;-81
2023/10/13 13:58:43;;;;;;;11.32;2.30;;;12.60;99.90;;;;;;5070671;28;20051;-81
2023/10/13 14:01:12;;;;;;;11.05;2.47;;;12.70;99.90;;;;;;5070233;28;20033;-80
2023/10/13 14:03:45;;;;;;;7.13;1.75;;;12.70;99.90;;;;;;5052517;28;20028;-78
2023/10/13 14:06:26;;;;;;;12.68;2.10;;;12.70;99.90;;;;;;5069885;28;20045;-81
2023/10/13 14:08:59;;;;;;;9.57;1.98;;;12.70;99.90;;;;;;5066090;28;20103;-79
2023/10/13 14:14:28;;;;;;;15.40;2.53;;;12.80;99.90;;;;;;5070493;28;19987;-81
2023/10/13 14:17:03;;;;;;;13.60;2.38;;;12.90;99.90;;;;;;5052191;28;20434;-79
2023/10/13 14:19:29;;;;;;;8.55;1.95;;;12.90;99.90;;;;;;5069498;28;20239;-80
2023/10/13 14:21:55;;;;;;;7.97;2.35;;;13.00;99.90;;;;;;5070182;28;20043;-80
2023/10/13 14:24:28;;;;;;;13.25;2.33;;;13.00;99.90;;;;;;5069726;28;20394;-82
2023/10/13 14:26:54;;;;;;;;;;;13.00;99.90;;;;;;5052649;28;20460;-80
2023/10/13 14:29:20;;;;;;;11.43;2.30;;;13.00;99.90;;;;;;5069571;28;19904;-80
2023/10/13 14:31:48;;;;;;;8.68;2.00;;;13.00;99.90;;;;;;5070024;28;20048;-81
2023/10/13 14:34:14;;;;;;;8.05;2.10;;;13.00;99.90;;;;;;5069509;28;20507;-82
2023/10/13 14:36:40;;;;;;;8.73;1.85;;;13.00;99.90;;;;;;5052433;28;20119;-81
2023/10/13 14:39:10;;;;;;;13.30;2.00;;;12.90;99.90;;;;;;5069886;28;20456;-80
2023/10/13 14:41:38;;;;;;;9.13;1.92;;;13.00;99.90;;;;;;5051919;28;20090;-81
2023/10/13 14:44:07;;;;;;;8.00;1.70;;;12.90;99.90;;;;;;5070212;28;20029;-81
2023/10/13 14:46:35;;;;;;;9.50;2.40;;;12.90;99.90;;;;;;5069772;28;20328;-80
2023/10/13 14:49:02;;;;;;;12.70;2.33;;;12.90;99.90;;;;;;5070209;28;20078;-81
2023/10/13 14:51:28;;;;;;;8.93;2.15;;;13.00;99.90;;;;;;5069571;28;20032;-82
2023/10/13 14:53:56;;;;;;;8.13;1.90;;;13.00;99.90;;;;;;5069296;28;20105;-82
2023/10/13 14:56:25;;;;;;;14.07;2.88;;;12.90;99.90;;;;;;5069128;28;20033;-81
2023/10/13 14:58:51;;;;;;;13.25;2.72;;;12.90;99.90;;;;;;5069662;28;20063;-82
2023/10/13 15:01:20;;;;;;;10.85;2.65;;;12.90;99.90;;;;;;5068753;28;20117;-83
2023/10/13 15:03:48;;;;;;;13.60;2.42;;;12.80;99.90;;;;;;5068982;28;20455;-83
2023/10/13 15:06:28;;;;;;;10.05;2.55;;;12.70;99.90;;;;;;5061208;28;20040;-82
2023/10/13 15:08:56;;;;;;;12.05;2.60;;;12.80;99.90;;;;;;5069964;28;20027;-82
2023/10/13 15:11:26;;;;;;;11.65;2.30;;;12.70;99.90;;;;;;5068076;28;20036;-82
2023/10/13 15:13:53;;;;;;;9.60;2.60;;;12.70;99.90;;;;;;5050255;28;20127;-82
2023/10/13 15:16:28;;;;;;;9.85;2.08;;;12.70;99.90;;;;;;5049203;28;20029;-82
2023/10/13 15:18:54;;;;;;;10.85;1.88;;;12.70;99.90;;;;;;5049768;28;20028;-80
2023/10/13 15:21:24;;;;;;;9.40;2.97;;;12.70;99.90;;;;;;5049286;28;20041;-81
2023/10/13 15:23:51;;;;;;;9.15;1.90;;;12.60;99.90;;;;;;5049749;28;20020;-82
2023/10/13 15:26:18;;;;;;;8.90;2.05;;;12.70;99.90;;;;;;5031693;28;20107;-82
2023/10/13 15:28:53;;;;;;;13.55;2.45;;;12.60;99.90;;;;;;5050781;28;20045;-80
2023/10/13 15:33:57;;;;;;;9.25;2.03;;;12.60;99.90;;;;;;5052947;28;20539;-82
2023/10/13 15:36:23;;;;;;;12.25;2.75;;;12.60;99.90;;;;;;5053281;28;20103;-82
2023/10/13 15:38:51;;;;;;;8.02;2.50;;;12.60;99.90;;;;;;5035401;28;20439;-82
2023/10/13 15:41:24;;;;;;;8.00;2.00;;;12.60;99.90;;;;;;5034593;28;20186;-83
2023/10/13 15:43:51;;;;;;;12.02;2.40;;;12.70;99.90;;;;;;5053255;28;20055;-83
2023/10/13 15:46:18;;;;;;;6.13;1.65;;;12.80;99.90;;;;;;5053389;28;20036;-83
2023/10/13 15:48:46;;;;;;;13.07;2.78;;;12.90;99.90;;;;;;5053708;28;20029;-81
2023/10/13 15:51:12;;;;;;;10.88;2.28;;;12.90;99.90;;;;;;5053808;28;20182;-83
2023/10/13 15:53:38;;;;;;;8.80;2.70;;;13.00;99.90;;;;;;5053764;28;20053;-81
2023/10/13 15:56:11;;;;;;;5.70;1.80;;;13.00;99.90;;;;;;5036242;28;20391;-82
2023/10/13 15:58:49;;;;;;;;;;;12.90;99.90;;;;;;5074289;28;20029;-83
2023/10/13 16:01:16;;;;;;;7.30;1.73;;;12.80;99.90;;;;;;5073168;28;19912;-84
2023/10/13 16:03:43;;;;;;;6.03;1.67;;;12.70;99.90;;;;;;5073388;28;20063;-81
2023/10/13 16:06:10;;;;;;;5.97;1.80;;;12.60;99.90;;;;;;5073373;28;20387;-81
2023/10/13 16:08:42;;;;;;;10.52;2.65;;;12.50;99.90;;;;;;5073667;28;20240;-82
2023/10/13 16:11:13;;;;;;;8.75;1.90;;;12.40;99.90;;;;;;5073440;28;20089;-82
2023/10/13 16:13:50;;;;;;;9.45;1.85;;;12.30;99.90;;;;;;5055361;28;20024;-82
2023/10/13 16:16:17;;;;;;;11.50;2.08;;;12.30;99.90;;;;;;5072662;28;20518;-85
2023/10/13 16:18:44;;;;;;;6.53;1.50;;;12.20;99.90;;;;;;5073072;28;20020;-82
2023/10/13 16:21:12;;;;;;;6.60;1.40;;;12.20;99.90;;;;;;5073041;28;20070;-82
2023/10/13 16:23:48;;;;;;;7.10;1.48;;;12.10;99.90;;;;;;5071954;28;20029;-83
2023/10/13 16:26:14;;;;;;;6.93;1.30;;;12.00;99.90;;;;;;5073064;28;20031;-81
2023/10/13 16:28:40;;;;;;;6.18;1.73;;;11.80;99.90;;;;;;5072161;28;20029;-83
2023/10/13 16:31:09;;;;;;;7.55;1.67;;;11.70;99.90;;;;;;5072485;28;20036;-82
2023/10/13 16:33:35;;;;;;;10.80;1.55;;;11.60;99.90;;;;;;5054616;28;20838;-82
2023/10/13 16:36:05;;;;;;;7.97;1.70;;;11.60;99.90;;;;;;5054263;28;20541;-83
2023/10/13 16:38:31;;;;;;;10.48;1.98;;;11.50;99.90;;;;;;5072036;28;20033;-83
2023/10/13 16:40:57;;;;;;;6.93;1.77;;;11.40;99.90;;;;;;5071291;28;20063;-82
2023/10/13 16:43:23;;;;;;;6.25;1.77;;;11.40;99.90;;;;;;5071403;28;20412;-83
2023/10/13 16:45:49;;;;;;;7.40;1.83;;;11.40;99.90;;;;;;5071765;28;20023;-82
2023/10/13 16:48:18;;;;;;;7.50;1.77;;;11.40;99.90;;;;;;5071818;28;20376;-82
2023/10/13 16:50:44;;;;;;;4.63;1.70;;;11.30;99.90;;;;;;5072017;28;20024;-82
2023/10/13 16:53:14;;;;;;;6.82;1.95;;;11.30;99.90;;;;;;5071612;28;20127;-82
2023/10/13 16:55:43;;;;;;;8.93;1.90;;;11.30;99.90;;;;;;5053006;28;20024;-81
2023/10/13 16:58:12;;;;;;;8.23;1.80;;;11.20;99.90;;;;;;5053818;28;20035;-80
2023/10/13 17:00:42;;;;;;;5.93;1.85;;;11.20;99.90;;;;;;5070304;28;20028;-82
2023/10/13 17:03:09;;;;;;;9.48;2.47;;;11.20;99.90;;;;;;5071357;28;20047;-82
2023/10/13 17:05:45;;;;;;;4.82;1.88;;;11.10;99.90;;;;;;5070395;28;20465;-82